createdAt,value
2018-06-19T00:00:04.080Z,1.609344
2018-06-19T00:00:16.475Z,6.437376
2018-06-19T00:00:28.886Z,6.437376
2018-06-19T00:00:41.349Z,3.218688
2018-06-19T00:00:53.813Z,1.609344
2018-06-19T00:01:06.393Z,1.609344
2018-06-19T00:01:18.804Z,1.609344
2018-06-19T00:01:31.233Z,6.437376
2018-06-19T00:01:43.622Z,1.609344
2018-06-19T00:01:56.040Z,0
2018-06-19T00:02:08.481Z,0
2018-06-19T00:02:20.909Z,1.609344
2018-06-19T00:02:33.316Z,1.609344
2018-06-19T00:02:45.826Z,1.609344
2018-06-19T00:02:58.257Z,3.218688
2018-06-19T00:03:10.714Z,3.218688
2018-06-19T00:03:23.104Z,1.609344
2018-06-19T00:03:35.499Z,0
2018-06-19T00:03:47.934Z,1.609344
2018-06-19T00:04:00.344Z,0
2018-06-19T00:04:12.744Z,0
2018-06-19T00:04:25.147Z,1.609344
2018-06-19T00:04:37.553Z,6.437376
2018-06-19T00:04:49.961Z,6.437376
2018-06-19T00:05:02.438Z,3.218688
2018-06-19T00:05:14.835Z,3.218688
2018-06-19T00:05:27.233Z,1.609344
2018-06-19T00:05:39.634Z,1.609344
2018-06-19T00:05:52.046Z,1.609344
2018-06-19T00:06:04.459Z,1.609344
2018-06-19T00:06:16.873Z,1.609344
2018-06-19T00:06:29.492Z,1.609344
2018-06-19T00:06:42.051Z,3.218688
2018-06-19T00:06:54.445Z,6.437376
2018-06-19T00:07:06.863Z,3.218688
2018-06-19T00:07:19.358Z,1.609344
2018-06-19T00:07:31.765Z,3.218688
2018-06-19T00:07:44.171Z,1.609344
2018-06-19T00:07:56.628Z,1.609344
2018-06-19T00:08:09.034Z,1.609344
2018-06-19T00:08:21.450Z,0
2018-06-19T00:08:33.836Z,3.218688
2018-06-19T00:08:46.250Z,4.828032
2018-06-19T00:08:58.706Z,3.218688
2018-06-19T00:09:11.129Z,1.609344
2018-06-19T00:09:23.562Z,1.609344
2018-06-19T00:09:35.984Z,1.609344
2018-06-19T00:09:48.383Z,4.828032
2018-06-19T00:10:00.779Z,4.828032
2018-06-19T00:10:13.190Z,1.609344
2018-06-19T00:10:25.599Z,6.437376
2018-06-19T00:10:38.041Z,3.218688
2018-06-19T00:10:50.451Z,3.218688
2018-06-19T00:11:02.852Z,8.04672
2018-06-19T00:11:15.249Z,3.218688
2018-06-19T00:11:27.659Z,3.218688
2018-06-19T00:11:40.252Z,3.218688
2018-06-19T00:11:52.669Z,3.218688
2018-06-19T00:12:05.054Z,6.437376
2018-06-19T00:12:17.479Z,4.828032
2018-06-19T00:12:29.874Z,6.437376
2018-06-19T00:12:42.258Z,8.04672
2018-06-19T00:12:54.665Z,6.437376
2018-06-19T00:13:07.078Z,6.437376
2018-06-19T00:13:19.484Z,4.828032
2018-06-19T00:13:31.909Z,6.437376
2018-06-19T00:13:44.334Z,6.437376
2018-06-19T00:13:56.737Z,3.218688
2018-06-19T00:14:09.125Z,1.609344
2018-06-19T00:14:21.554Z,4.828032
2018-06-19T00:14:33.962Z,6.437376
2018-06-19T00:14:46.363Z,6.437376
2018-06-19T00:14:58.752Z,4.828032
2018-06-19T00:15:11.169Z,3.218688
2018-06-19T00:15:23.561Z,3.218688
2018-06-19T00:15:36.003Z,3.218688
2018-06-19T00:15:48.423Z,6.437376
2018-06-19T00:16:00.884Z,3.218688
2018-06-19T00:16:13.304Z,4.828032
2018-06-19T00:16:25.765Z,4.828032
2018-06-19T00:16:38.200Z,1.609344
2018-06-19T00:16:50.604Z,3.218688
2018-06-19T00:17:03.005Z,6.437376
2018-06-19T00:17:15.386Z,4.828032
2018-06-19T00:17:27.780Z,3.218688
2018-06-19T00:17:40.208Z,1.609344
2018-06-19T00:17:52.831Z,1.609344
2018-06-19T00:18:05.235Z,0
2018-06-19T00:18:17.616Z,1.609344
2018-06-19T00:18:30.096Z,1.609344
2018-06-19T00:18:42.500Z,1.609344
2018-06-19T00:18:54.902Z,1.609344
2018-06-19T00:19:07.310Z,1.609344
2018-06-19T00:19:19.846Z,1.609344
2018-06-19T00:19:32.245Z,3.218688
2018-06-19T00:19:44.646Z,3.218688
2018-06-19T00:19:57.042Z,6.437376
2018-06-19T00:20:09.457Z,3.218688
2018-06-19T00:20:21.850Z,6.437376
2018-06-19T00:20:34.250Z,3.218688
2018-06-19T00:20:46.630Z,3.218688
2018-06-19T00:20:59.185Z,6.437376
2018-06-19T00:21:11.585Z,8.04672
2018-06-19T00:21:23.993Z,4.828032
2018-06-19T00:21:36.417Z,4.828032
2018-06-19T00:21:48.850Z,4.828032
2018-06-19T00:22:01.243Z,6.437376
2018-06-19T00:22:13.641Z,1.609344
2018-06-19T00:22:26.073Z,4.828032
2018-06-19T00:22:38.485Z,1.609344
2018-06-19T00:22:50.881Z,3.218688
2018-06-19T00:23:03.272Z,9.656064
2018-06-19T00:23:15.720Z,3.218688
2018-06-19T00:23:28.117Z,6.437376
2018-06-19T00:23:40.501Z,3.218688
2018-06-19T00:23:52.935Z,1.609344
2018-06-19T00:24:05.477Z,1.609344
2018-06-19T00:24:17.862Z,3.218688
2018-06-19T00:24:30.259Z,3.218688
2018-06-19T00:24:42.649Z,1.609344
2018-06-19T00:24:55.028Z,3.218688
2018-06-19T00:25:07.425Z,3.218688
2018-06-19T00:25:19.826Z,3.218688
2018-06-19T00:25:32.219Z,1.609344
2018-06-19T00:25:44.598Z,1.609344
2018-06-19T00:25:56.991Z,1.609344
2018-06-19T00:26:09.384Z,0
2018-06-19T00:26:21.831Z,3.218688
2018-06-19T00:26:34.217Z,1.609344
2018-06-19T00:26:46.640Z,1.609344
2018-06-19T00:26:59.349Z,1.609344
2018-06-19T00:27:11.748Z,1.609344
2018-06-19T00:27:24.150Z,1.609344
2018-06-19T00:27:36.567Z,1.609344
2018-06-19T00:27:49.208Z,1.609344
2018-06-19T00:28:01.616Z,1.609344
2018-06-19T00:28:14.013Z,1.609344
2018-06-19T00:28:26.407Z,3.218688
2018-06-19T00:28:38.816Z,6.437376
2018-06-19T00:28:51.218Z,3.218688
2018-06-19T00:29:03.655Z,1.609344
2018-06-19T00:29:16.107Z,1.609344
2018-06-19T00:29:28.513Z,1.609344
2018-06-19T00:29:41.040Z,1.609344
2018-06-19T00:29:53.437Z,1.609344
2018-06-19T00:30:05.837Z,3.218688
2018-06-19T00:30:18.236Z,3.218688
2018-06-19T00:30:30.628Z,3.218688
2018-06-19T00:30:43.014Z,4.828032
2018-06-19T00:30:55.429Z,1.609344
2018-06-19T00:31:07.840Z,0
2018-06-19T00:31:20.226Z,1.609344
2018-06-19T00:31:32.740Z,1.609344
2018-06-19T00:31:45.168Z,1.609344
2018-06-19T00:31:57.660Z,1.609344
2018-06-19T00:32:10.059Z,1.609344
2018-06-19T00:32:22.478Z,0
2018-06-19T00:32:34.876Z,3.218688
2018-06-19T00:32:47.294Z,1.609344
2018-06-19T00:32:59.692Z,6.437376
2018-06-19T00:33:12.091Z,3.218688
2018-06-19T00:33:24.523Z,0
2018-06-19T00:33:36.938Z,4.828032
2018-06-19T00:33:49.347Z,9.656064
2018-06-19T00:34:01.767Z,6.437376
2018-06-19T00:34:14.171Z,3.218688
2018-06-19T00:34:26.604Z,3.218688
2018-06-19T00:34:39.085Z,1.609344
2018-06-19T00:34:51.482Z,3.218688
2018-06-19T00:35:03.908Z,1.609344
2018-06-19T00:35:16.349Z,3.218688
2018-06-19T00:35:28.769Z,1.609344
2018-06-19T00:35:41.176Z,3.218688
2018-06-19T00:35:53.614Z,1.609344
2018-06-19T00:36:06.050Z,1.609344
2018-06-19T00:36:18.457Z,1.609344
2018-06-19T00:36:30.861Z,1.609344
2018-06-19T00:36:43.252Z,1.609344
2018-06-19T00:36:55.675Z,1.609344
2018-06-19T00:37:08.137Z,1.609344
2018-06-19T00:37:20.556Z,1.609344
2018-06-19T00:37:32.941Z,0
2018-06-19T00:37:45.332Z,1.609344
2018-06-19T00:37:57.721Z,6.437376
2018-06-19T00:38:10.123Z,1.609344
2018-06-19T00:38:22.522Z,0
2018-06-19T00:38:34.923Z,0
2018-06-19T00:38:47.321Z,1.609344
2018-06-19T00:38:59.720Z,1.609344
2018-06-19T00:39:12.137Z,1.609344
2018-06-19T00:39:24.526Z,1.609344
2018-06-19T00:39:36.926Z,0
2018-06-19T00:39:49.471Z,0
2018-06-19T00:40:01.886Z,1.609344
2018-06-19T00:40:14.280Z,1.609344
2018-06-19T00:40:26.683Z,1.609344
2018-06-19T00:40:39.080Z,0
2018-06-19T00:40:51.455Z,1.609344
2018-06-19T00:41:03.855Z,1.609344
2018-06-19T00:41:16.239Z,0
2018-06-19T00:41:28.640Z,0
2018-06-19T00:41:41.116Z,1.609344
2018-06-19T00:41:53.658Z,1.609344
2018-06-19T00:42:06.053Z,0
2018-06-19T00:42:18.463Z,3.218688
2018-06-19T00:42:30.892Z,1.609344
2018-06-19T00:42:43.305Z,3.218688
2018-06-19T00:42:55.693Z,4.828032
2018-06-19T00:43:08.125Z,1.609344
2018-06-19T00:43:20.529Z,1.609344
2018-06-19T00:43:32.921Z,1.609344
2018-06-19T00:43:45.327Z,3.218688
2018-06-19T00:43:57.733Z,6.437376
2018-06-19T00:44:10.134Z,3.218688
2018-06-19T00:44:22.548Z,4.828032
2018-06-19T00:44:34.934Z,3.218688
2018-06-19T00:44:47.337Z,3.218688
2018-06-19T00:44:59.745Z,6.437376
2018-06-19T00:45:12.161Z,1.609344
2018-06-19T00:45:24.562Z,1.609344
2018-06-19T00:45:36.992Z,0
2018-06-19T00:45:49.441Z,0
2018-06-19T00:46:02.153Z,0
2018-06-19T00:46:14.551Z,1.609344
2018-06-19T00:46:26.951Z,1.609344
2018-06-19T00:46:39.350Z,1.609344
2018-06-19T00:46:51.746Z,1.609344
2018-06-19T00:47:04.155Z,0
2018-06-19T00:47:16.561Z,0
2018-06-19T00:47:28.933Z,0
2018-06-19T00:47:41.396Z,0
2018-06-19T00:47:53.846Z,0
2018-06-19T00:48:06.251Z,1.609344
2018-06-19T00:48:18.685Z,1.609344
2018-06-19T00:48:31.085Z,1.609344
2018-06-19T00:48:43.617Z,0
2018-06-19T00:48:56.006Z,3.218688
2018-06-19T00:49:08.430Z,1.609344
2018-06-19T00:49:20.871Z,3.218688
2018-06-19T00:49:33.256Z,0
2018-06-19T00:49:45.662Z,0
2018-06-19T00:49:58.091Z,1.609344
2018-06-19T00:50:10.498Z,6.437376
2018-06-19T00:50:22.903Z,6.437376
2018-06-19T00:50:35.305Z,1.609344
2018-06-19T00:50:47.687Z,1.609344
2018-06-19T00:51:00.086Z,0
2018-06-19T00:51:12.497Z,1.609344
2018-06-19T00:51:24.875Z,1.609344
2018-06-19T00:51:37.315Z,3.218688
2018-06-19T00:51:49.752Z,3.218688
2018-06-19T00:52:02.159Z,6.437376
2018-06-19T00:52:14.581Z,1.609344
2018-06-19T00:52:27.001Z,1.609344
2018-06-19T00:52:39.404Z,3.218688
2018-06-19T00:52:51.786Z,3.218688
2018-06-19T00:53:04.181Z,8.04672
2018-06-19T00:53:16.570Z,8.04672
2018-06-19T00:53:28.965Z,3.218688
2018-06-19T00:53:41.416Z,3.218688
2018-06-19T00:53:53.804Z,6.437376
2018-06-19T00:54:06.197Z,9.656064
2018-06-19T00:54:18.664Z,6.437376
2018-06-19T00:54:31.049Z,11.265408
2018-06-19T00:54:43.494Z,6.437376
2018-06-19T00:54:55.907Z,8.04672
2018-06-19T00:55:08.317Z,4.828032
2018-06-19T00:55:20.752Z,6.437376
2018-06-19T00:55:33.172Z,4.828032
2018-06-19T00:55:45.593Z,1.609344
2018-06-19T00:55:57.998Z,1.609344
2018-06-19T00:56:10.391Z,1.609344
2018-06-19T00:56:22.830Z,0
2018-06-19T00:56:35.800Z,1.609344
2018-06-19T00:56:48.482Z,1.609344
2018-06-19T00:57:00.906Z,3.218688
2018-06-19T00:57:13.318Z,1.609344
2018-06-19T00:57:25.727Z,1.609344
2018-06-19T00:57:38.138Z,0
2018-06-19T00:57:50.520Z,0
2018-06-19T00:58:02.955Z,0
2018-06-19T00:58:15.353Z,1.609344
2018-06-19T00:58:27.808Z,1.609344
2018-06-19T00:58:40.202Z,1.609344
2018-06-19T00:58:52.593Z,1.609344
2018-06-19T00:59:05.010Z,6.437376
2018-06-19T00:59:17.633Z,1.609344
2018-06-19T00:59:30.027Z,1.609344
2018-06-19T00:59:42.429Z,3.218688
2018-06-19T00:59:54.851Z,0
2018-06-19T01:00:07.273Z,1.609344
2018-06-19T01:00:19.673Z,1.609344
2018-06-19T01:00:32.098Z,6.437376
2018-06-19T01:00:44.555Z,11.265408
2018-06-19T01:00:56.977Z,9.656064
2018-06-19T01:01:09.547Z,6.437376
2018-06-19T01:01:21.973Z,6.437376
2018-06-19T01:01:34.387Z,6.437376
2018-06-19T01:01:46.832Z,1.609344
2018-06-19T01:01:59.300Z,0
2018-06-19T01:02:11.750Z,1.609344
2018-06-19T01:02:24.143Z,3.218688
2018-06-19T01:02:36.684Z,3.218688
2018-06-19T01:02:49.101Z,11.265408
2018-06-19T01:03:01.507Z,9.656064
2018-06-19T01:03:13.919Z,9.656064
2018-06-19T01:03:26.307Z,6.437376
2018-06-19T01:03:38.710Z,11.265408
2018-06-19T01:03:51.120Z,11.265408
2018-06-19T01:04:03.544Z,6.437376
2018-06-19T01:04:16.007Z,4.828032
2018-06-19T01:04:28.420Z,11.265408
2018-06-19T01:04:40.825Z,8.04672
2018-06-19T01:04:53.227Z,3.218688
2018-06-19T01:05:05.607Z,1.609344
2018-06-19T01:05:17.997Z,6.437376
2018-06-19T01:05:30.375Z,11.265408
2018-06-19T01:05:42.784Z,9.656064
2018-06-19T01:05:55.166Z,8.04672
2018-06-19T01:06:07.571Z,6.437376
2018-06-19T01:06:20.041Z,3.218688
2018-06-19T01:06:32.547Z,1.609344
2018-06-19T01:06:45.100Z,3.218688
2018-06-19T01:06:57.500Z,1.609344
2018-06-19T01:07:09.880Z,1.609344
2018-06-19T01:07:22.387Z,11.265408
2018-06-19T01:07:34.775Z,12.874752
2018-06-19T01:07:47.162Z,6.437376
2018-06-19T01:07:59.560Z,11.265408
2018-06-19T01:08:12.013Z,6.437376
2018-06-19T01:08:24.393Z,3.218688
2018-06-19T01:08:36.785Z,6.437376
2018-06-19T01:08:49.190Z,6.437376
2018-06-19T01:09:01.590Z,1.609344
2018-06-19T01:09:13.988Z,1.609344
2018-06-19T01:09:26.398Z,3.218688
2018-06-19T01:09:38.858Z,9.656064
2018-06-19T01:09:51.258Z,6.437376
2018-06-19T01:10:03.670Z,3.218688
2018-06-19T01:10:16.066Z,1.609344
2018-06-19T01:10:28.534Z,0
2018-06-19T01:10:40.937Z,3.218688
2018-06-19T01:10:53.330Z,3.218688
2018-06-19T01:11:05.762Z,3.218688
2018-06-19T01:11:18.162Z,1.609344
2018-06-19T01:11:30.581Z,3.218688
2018-06-19T01:11:43.006Z,6.437376
2018-06-19T01:11:55.440Z,3.218688
2018-06-19T01:12:07.972Z,8.04672
2018-06-19T01:12:20.389Z,11.265408
2018-06-19T01:12:32.811Z,16.09344
2018-06-19T01:12:45.209Z,8.04672
2018-06-19T01:12:57.598Z,3.218688
2018-06-19T01:13:09.991Z,11.265408
2018-06-19T01:13:22.402Z,14.484096
2018-06-19T01:13:34.806Z,16.09344
2018-06-19T01:13:47.207Z,8.04672
2018-06-19T01:13:59.596Z,4.828032
2018-06-19T01:14:12.034Z,1.609344
2018-06-19T01:14:24.455Z,11.265408
2018-06-19T01:14:36.860Z,9.656064
2018-06-19T01:14:49.252Z,6.437376
2018-06-19T01:15:01.667Z,9.656064
2018-06-19T01:15:14.082Z,12.874752
2018-06-19T01:15:26.474Z,9.656064
2018-06-19T01:15:38.881Z,9.656064
2018-06-19T01:15:51.306Z,9.656064
2018-06-19T01:16:03.709Z,3.218688
2018-06-19T01:16:16.111Z,3.218688
2018-06-19T01:16:28.504Z,1.609344
2018-06-19T01:16:40.892Z,1.609344
2018-06-19T01:16:53.369Z,3.218688
2018-06-19T01:17:05.834Z,1.609344
2018-06-19T01:17:18.262Z,3.218688
2018-06-19T01:17:30.668Z,8.04672
2018-06-19T01:17:43.091Z,4.828032
2018-06-19T01:17:55.623Z,6.437376
2018-06-19T01:18:08.006Z,8.04672
2018-06-19T01:18:20.406Z,6.437376
2018-06-19T01:18:32.793Z,8.04672
2018-06-19T01:18:45.175Z,6.437376
2018-06-19T01:18:57.548Z,6.437376
2018-06-19T01:19:09.950Z,3.218688
2018-06-19T01:19:22.456Z,6.437376
2018-06-19T01:19:34.854Z,1.609344
2018-06-19T01:19:47.262Z,1.609344
2018-06-19T01:19:59.638Z,4.828032
2018-06-19T01:20:12.050Z,6.437376
2018-06-19T01:20:24.451Z,6.437376
2018-06-19T01:20:36.839Z,1.609344
2018-06-19T01:20:49.239Z,4.828032
2018-06-19T01:21:01.637Z,8.04672
2018-06-19T01:21:14.043Z,6.437376
2018-06-19T01:21:26.451Z,8.04672
2018-06-19T01:21:39.013Z,8.04672
2018-06-19T01:21:51.450Z,3.218688
2018-06-19T01:22:03.883Z,8.04672
2018-06-19T01:22:16.285Z,6.437376
2018-06-19T01:22:28.689Z,12.874752
2018-06-19T01:22:41.075Z,11.265408
2018-06-19T01:22:53.463Z,9.656064
2018-06-19T01:23:05.863Z,8.04672
2018-06-19T01:23:18.252Z,9.656064
2018-06-19T01:23:30.648Z,6.437376
2018-06-19T01:23:43.048Z,4.828032
2018-06-19T01:23:55.574Z,4.828032
2018-06-19T01:24:07.987Z,6.437376
2018-06-19T01:24:20.403Z,8.04672
2018-06-19T01:24:32.824Z,11.265408
2018-06-19T01:24:45.225Z,3.218688
2018-06-19T01:24:57.614Z,6.437376
2018-06-19T01:25:10.036Z,8.04672
2018-06-19T01:25:22.420Z,6.437376
2018-06-19T01:25:35.001Z,8.04672
2018-06-19T01:25:47.523Z,8.04672
2018-06-19T01:25:59.911Z,11.265408
2018-06-19T01:26:12.302Z,8.04672
2018-06-19T01:26:24.697Z,6.437376
2018-06-19T01:26:37.105Z,6.437376
2018-06-19T01:26:49.511Z,8.04672
2018-06-19T01:27:02.186Z,8.04672
2018-06-19T01:27:14.730Z,4.828032
2018-06-19T01:27:27.144Z,6.437376
2018-06-19T01:27:39.548Z,8.04672
2018-06-19T01:27:51.934Z,6.437376
2018-06-19T01:28:04.345Z,1.609344
2018-06-19T01:28:16.795Z,1.609344
2018-06-19T01:28:29.238Z,1.609344
2018-06-19T01:28:42.113Z,3.218688
2018-06-19T01:28:54.824Z,6.437376
2018-06-19T01:29:07.231Z,6.437376
2018-06-19T01:29:19.619Z,9.656064
2018-06-19T01:29:32.036Z,6.437376
2018-06-19T01:29:44.417Z,1.609344
2018-06-19T01:29:56.850Z,3.218688
2018-06-19T01:30:09.262Z,8.04672
2018-06-19T01:30:21.673Z,9.656064
2018-06-19T01:30:34.080Z,6.437376
2018-06-19T01:30:46.485Z,11.265408
2018-06-19T01:30:58.883Z,8.04672
2018-06-19T01:31:11.345Z,12.874752
2018-06-19T01:31:23.738Z,8.04672
2018-06-19T01:31:36.172Z,6.437376
2018-06-19T01:31:48.595Z,6.437376
2018-06-19T01:32:00.982Z,4.828032
2018-06-19T01:32:13.430Z,3.218688
2018-06-19T01:32:25.826Z,3.218688
2018-06-19T01:32:38.213Z,8.04672
2018-06-19T01:32:50.629Z,6.437376
2018-06-19T01:33:03.030Z,3.218688
2018-06-19T01:33:15.419Z,1.609344
2018-06-19T01:33:28.211Z,3.218688
2018-06-19T01:33:40.643Z,3.218688
2018-06-19T01:33:53.049Z,4.828032
2018-06-19T01:34:05.445Z,3.218688
2018-06-19T01:34:17.841Z,6.437376
2018-06-19T01:34:30.236Z,3.218688
2018-06-19T01:34:42.637Z,3.218688
2018-06-19T01:34:55.028Z,3.218688
2018-06-19T01:35:07.431Z,1.609344
2018-06-19T01:35:19.853Z,3.218688
2018-06-19T01:35:32.261Z,11.265408
2018-06-19T01:35:44.660Z,9.656064
2018-06-19T01:35:57.065Z,6.437376
2018-06-19T01:36:09.476Z,4.828032
2018-06-19T01:36:21.894Z,8.04672
2018-06-19T01:36:34.280Z,9.656064
2018-06-19T01:36:46.669Z,8.04672
2018-06-19T01:36:59.084Z,4.828032
2018-06-19T01:37:11.502Z,3.218688
2018-06-19T01:37:23.980Z,8.04672
2018-06-19T01:37:36.408Z,6.437376
2018-06-19T01:37:48.864Z,9.656064
2018-06-19T01:38:01.838Z,3.218688
2018-06-19T01:38:15.762Z,4.828032
2018-06-19T01:38:28.801Z,8.04672
2018-06-19T01:38:41.226Z,6.437376
2018-06-19T01:38:53.618Z,9.656064
2018-06-19T01:39:06.038Z,8.04672
2018-06-19T01:39:18.429Z,4.828032
2018-06-19T01:39:30.843Z,3.218688
2018-06-19T01:39:43.231Z,4.828032
2018-06-19T01:39:55.632Z,6.437376
2018-06-19T01:40:08.051Z,6.437376
2018-06-19T01:40:20.450Z,6.437376
2018-06-19T01:40:32.857Z,6.437376
2018-06-19T01:40:45.278Z,6.437376
2018-06-19T01:40:57.860Z,6.437376
2018-06-19T01:41:10.250Z,6.437376
2018-06-19T01:41:22.650Z,8.04672
2018-06-19T01:41:35.045Z,11.265408
2018-06-19T01:41:47.451Z,9.656064
2018-06-19T01:41:59.957Z,3.218688
2018-06-19T01:42:12.447Z,3.218688
2018-06-19T01:42:24.843Z,4.828032
2018-06-19T01:42:37.235Z,6.437376
2018-06-19T01:42:49.650Z,9.656064
2018-06-19T01:43:02.065Z,9.656064
2018-06-19T01:43:14.478Z,9.656064
2018-06-19T01:43:26.888Z,14.484096
2018-06-19T01:43:39.441Z,14.484096
2018-06-19T01:43:51.862Z,12.874752
2018-06-19T01:44:04.268Z,6.437376
2018-06-19T01:44:16.670Z,6.437376
2018-06-19T01:44:29.067Z,8.04672
2018-06-19T01:44:41.461Z,6.437376
2018-06-19T01:44:53.868Z,8.04672
2018-06-19T01:45:06.272Z,9.656064
2018-06-19T01:45:18.665Z,6.437376
2018-06-19T01:45:31.048Z,3.218688
2018-06-19T01:45:43.466Z,3.218688
2018-06-19T01:45:56.008Z,1.609344
2018-06-19T01:46:08.417Z,3.218688
2018-06-19T01:46:20.807Z,3.218688
2018-06-19T01:46:33.206Z,1.609344
2018-06-19T01:46:45.617Z,1.609344
2018-06-19T01:46:58.048Z,9.656064
2018-06-19T01:47:10.455Z,8.04672
2018-06-19T01:47:22.879Z,8.04672
2018-06-19T01:47:35.277Z,1.609344
2018-06-19T01:47:47.669Z,3.218688
2018-06-19T01:48:00.065Z,8.04672
2018-06-19T01:48:12.457Z,9.656064
2018-06-19T01:48:24.851Z,4.828032
2018-06-19T01:48:37.395Z,3.218688
2018-06-19T01:48:49.808Z,6.437376
2018-06-19T01:49:02.264Z,9.656064
2018-06-19T01:49:14.692Z,6.437376
2018-06-19T01:49:27.092Z,3.218688
2018-06-19T01:49:39.524Z,4.828032
2018-06-19T01:49:51.935Z,3.218688
2018-06-19T01:50:04.328Z,3.218688
2018-06-19T01:50:16.733Z,4.828032
2018-06-19T01:50:29.127Z,9.656064
2018-06-19T01:50:41.525Z,9.656064
2018-06-19T01:50:53.912Z,4.828032
2018-06-19T01:51:06.330Z,6.437376
2018-06-19T01:51:18.744Z,3.218688
2018-06-19T01:51:31.146Z,11.265408
2018-06-19T01:51:43.544Z,6.437376
2018-06-19T01:51:55.927Z,6.437376
2018-06-19T01:52:08.319Z,11.265408
2018-06-19T01:52:20.730Z,6.437376
2018-06-19T01:52:33.140Z,3.218688
2018-06-19T01:52:45.522Z,1.609344
2018-06-19T01:52:57.919Z,1.609344
2018-06-19T01:53:10.318Z,4.828032
2018-06-19T01:53:22.699Z,3.218688
2018-06-19T01:53:35.122Z,4.828032
2018-06-19T01:53:47.511Z,8.04672
2018-06-19T01:53:59.886Z,6.437376
2018-06-19T01:54:12.287Z,3.218688
2018-06-19T01:54:24.673Z,8.04672
2018-06-19T01:54:37.075Z,9.656064
2018-06-19T01:54:49.492Z,3.218688
2018-06-19T01:55:01.888Z,1.609344
2018-06-19T01:55:14.301Z,1.609344
2018-06-19T01:55:26.680Z,6.437376
2018-06-19T01:55:39.075Z,3.218688
2018-06-19T01:55:51.471Z,3.218688
2018-06-19T01:56:03.859Z,4.828032
2018-06-19T01:56:16.272Z,1.609344
2018-06-19T01:56:28.672Z,1.609344
2018-06-19T01:56:41.094Z,1.609344
2018-06-19T01:56:53.481Z,1.609344
2018-06-19T01:57:05.907Z,1.609344
2018-06-19T01:57:18.342Z,1.609344
2018-06-19T01:57:30.796Z,1.609344
2018-06-19T01:57:43.176Z,8.04672
2018-06-19T01:57:55.567Z,4.828032
2018-06-19T01:58:07.962Z,8.04672
2018-06-19T01:58:20.346Z,3.218688
2018-06-19T01:58:32.864Z,1.609344
2018-06-19T01:58:45.262Z,1.609344
2018-06-19T01:58:57.651Z,4.828032
2018-06-19T01:59:10.049Z,3.218688
2018-06-19T01:59:22.432Z,1.609344
2018-06-19T01:59:34.831Z,1.609344
2018-06-19T01:59:47.246Z,1.609344
2018-06-19T01:59:59.753Z,3.218688
2018-06-19T02:00:12.147Z,1.609344
2018-06-19T02:00:24.550Z,1.609344
2018-06-19T02:00:36.973Z,4.828032
2018-06-19T02:00:49.388Z,6.437376
2018-06-19T02:01:01.879Z,1.609344
2018-06-19T02:01:14.453Z,1.609344
2018-06-19T02:01:26.875Z,1.609344
2018-06-19T02:01:39.272Z,6.437376
2018-06-19T02:01:51.707Z,8.04672
2018-06-19T02:02:04.193Z,6.437376
2018-06-19T02:02:16.622Z,8.04672
2018-06-19T02:02:29.084Z,6.437376
2018-06-19T02:02:41.611Z,3.218688
2018-06-19T02:02:54.011Z,8.04672
2018-06-19T02:03:06.437Z,6.437376
2018-06-19T02:03:18.861Z,4.828032
2018-06-19T02:03:31.253Z,3.218688
2018-06-19T02:03:43.645Z,1.609344
2018-06-19T02:03:56.079Z,0
2018-06-19T02:04:08.470Z,1.609344
2018-06-19T02:04:20.920Z,3.218688
2018-06-19T02:04:33.311Z,9.656064
2018-06-19T02:04:45.720Z,6.437376
2018-06-19T02:04:58.128Z,8.04672
2018-06-19T02:05:10.527Z,9.656064
2018-06-19T02:05:22.930Z,6.437376
2018-06-19T02:05:35.367Z,3.218688
2018-06-19T02:05:47.769Z,1.609344
2018-06-19T02:06:00.174Z,3.218688
2018-06-19T02:06:12.590Z,1.609344
2018-06-19T02:06:24.999Z,3.218688
2018-06-19T02:06:37.517Z,6.437376
2018-06-19T02:06:49.931Z,6.437376
2018-06-19T02:07:02.424Z,4.828032
2018-06-19T02:07:14.929Z,1.609344
2018-06-19T02:07:27.318Z,1.609344
2018-06-19T02:07:39.705Z,1.609344
2018-06-19T02:07:52.095Z,1.609344
2018-06-19T02:08:04.470Z,3.218688
2018-06-19T02:08:16.857Z,6.437376
2018-06-19T02:08:29.245Z,6.437376
2018-06-19T02:08:41.735Z,3.218688
2018-06-19T02:08:54.154Z,1.609344
2018-06-19T02:09:06.572Z,1.609344
2018-06-19T02:09:18.979Z,1.609344
2018-06-19T02:09:31.379Z,6.437376
2018-06-19T02:09:43.771Z,6.437376
2018-06-19T02:09:56.237Z,3.218688
2018-06-19T02:10:08.657Z,3.218688
2018-06-19T02:10:21.050Z,1.609344
2018-06-19T02:10:33.455Z,3.218688
2018-06-19T02:10:45.850Z,1.609344
2018-06-19T02:10:58.278Z,1.609344
2018-06-19T02:11:10.709Z,9.656064
2018-06-19T02:11:23.235Z,6.437376
2018-06-19T02:11:35.636Z,3.218688
2018-06-19T02:11:48.052Z,6.437376
2018-06-19T02:12:00.493Z,1.609344
2018-06-19T02:12:12.893Z,1.609344
2018-06-19T02:12:25.324Z,0
2018-06-19T02:12:37.725Z,0
2018-06-19T02:12:50.111Z,1.609344
2018-06-19T02:13:02.516Z,3.218688
2018-06-19T02:13:14.915Z,1.609344
2018-06-19T02:13:27.300Z,3.218688
2018-06-19T02:13:39.681Z,1.609344
2018-06-19T02:13:52.106Z,1.609344
2018-06-19T02:14:04.517Z,1.609344
2018-06-19T02:14:16.915Z,3.218688
2018-06-19T02:14:29.363Z,3.218688
2018-06-19T02:14:41.779Z,1.609344
2018-06-19T02:14:54.202Z,1.609344
2018-06-19T02:15:06.624Z,0
2018-06-19T02:15:19.077Z,1.609344
2018-06-19T02:15:31.522Z,3.218688
2018-06-19T02:15:43.903Z,3.218688
2018-06-19T02:15:56.341Z,6.437376
2018-06-19T02:16:08.744Z,1.609344
2018-06-19T02:16:21.133Z,1.609344
2018-06-19T02:16:33.539Z,1.609344
2018-06-19T02:16:45.929Z,9.656064
2018-06-19T02:16:58.334Z,6.437376
2018-06-19T02:17:10.732Z,6.437376
2018-06-19T02:17:23.164Z,3.218688
2018-06-19T02:17:35.543Z,3.218688
2018-06-19T02:17:47.948Z,1.609344
2018-06-19T02:18:00.515Z,1.609344
2018-06-19T02:18:12.914Z,1.609344
2018-06-19T02:18:25.312Z,1.609344
2018-06-19T02:18:37.725Z,1.609344
2018-06-19T02:18:50.158Z,3.218688
2018-06-19T02:19:02.575Z,1.609344
2018-06-19T02:19:15.136Z,0
2018-06-19T02:19:27.523Z,1.609344
2018-06-19T02:19:39.960Z,3.218688
2018-06-19T02:19:52.346Z,0
2018-06-19T02:20:04.786Z,1.609344
2018-06-19T02:20:17.216Z,1.609344
2018-06-19T02:20:29.607Z,0
2018-06-19T02:20:41.988Z,1.609344
2018-06-19T02:20:54.397Z,1.609344
2018-06-19T02:21:06.801Z,1.609344
2018-06-19T02:21:19.208Z,4.828032
2018-06-19T02:21:31.637Z,3.218688
2018-06-19T02:21:44.043Z,1.609344
2018-06-19T02:21:56.446Z,1.609344
2018-06-19T02:22:08.852Z,3.218688
2018-06-19T02:22:21.265Z,0
2018-06-19T02:22:33.661Z,0
2018-06-19T02:22:46.057Z,0
2018-06-19T02:22:58.452Z,1.609344
2018-06-19T02:23:11.024Z,1.609344
2018-06-19T02:23:23.442Z,3.218688
2018-06-19T02:23:35.835Z,1.609344
2018-06-19T02:23:48.220Z,1.609344
2018-06-19T02:24:00.808Z,0
2018-06-19T02:24:13.215Z,0
2018-06-19T02:24:25.599Z,0
2018-06-19T02:24:37.994Z,0
2018-06-19T02:24:50.522Z,1.609344
2018-06-19T02:25:02.976Z,1.609344
2018-06-19T02:25:15.382Z,0
2018-06-19T02:25:27.809Z,1.609344
2018-06-19T02:25:40.204Z,3.218688
2018-06-19T02:25:52.621Z,6.437376
2018-06-19T02:26:05.037Z,4.828032
2018-06-19T02:26:17.432Z,3.218688
2018-06-19T02:26:29.838Z,3.218688
2018-06-19T02:26:42.236Z,4.828032
2018-06-19T02:26:54.645Z,3.218688
2018-06-19T02:27:07.410Z,1.609344
2018-06-19T02:27:19.830Z,1.609344
2018-06-19T02:27:32.226Z,3.218688
2018-06-19T02:27:44.609Z,3.218688
2018-06-19T02:27:56.976Z,3.218688
2018-06-19T02:28:09.402Z,6.437376
2018-06-19T02:28:21.881Z,3.218688